sensor_id;sensor_type;location;lat;lon;timestamp;temperature;humidity
21759;DHT22;11041;50.854;20.580;2023-05-10T00:00:44;6.40;99.90
21759;DHT22;11041;50.854;20.580;2023-05-10T00:03:11;6.40;99.90
21759;DHT22;11041;50.854;20.580;2023-05-10T00:05:38;6.50;99.90
21759;DHT22;11041;50.854;20.580;2023-05-10T00:08:04;6.40;99.90
21759;DHT22;11041;50.854;20.580;2023-05-10T00:10:31;6.50;99.90
21759;DHT22;11041;50.854;20.580;2023-05-10T00:12:57;6.40;99.90
21759;DHT22;11041;50.854;20.580;2023-05-10T00:15:24;6.40;99.90
21759;DHT22;11041;50.854;20.580;2023-05-10T00:17:51;6.30;99.90
21759;DHT22;11041;50.854;20.580;2023-05-10T00:20:17;6.30;99.90
21759;DHT22;11041;50.854;20.580;2023-05-10T00:22:44;6.30;99.90
21759;DHT22;11041;50.854;20.580;2023-05-10T00:25:10;6.20;99.90
21759;DHT22;11041;50.854;20.580;2023-05-10T00:27:37;6.00;99.90
21759;DHT22;11041;50.854;20.580;2023-05-10T00:30:04;6.00;99.90
21759;DHT22;11041;50.854;20.580;2023-05-10T00:32:31;6.00;99.90
21759;DHT22;11041;50.854;20.580;2023-05-10T00:34:58;5.90;99.90
21759;DHT22;11041;50.854;20.580;2023-05-10T00:37:24;5.90;99.90
21759;DHT22;11041;50.854;20.580;2023-05-10T00:39:51;6.00;99.90
21759;DHT22;11041;50.854;20.580;2023-05-10T00:42:17;5.80;99.90
21759;DHT22;11041;50.854;20.580;2023-05-10T00:44:44;5.80;99.90
21759;DHT22;11041;50.854;20.580;2023-05-10T00:47:10;5.80;99.90
21759;DHT22;11041;50.854;20.580;2023-05-10T00:49:38;5.80;99.90
21759;DHT22;11041;50.854;20.580;2023-05-10T00:52:04;5.90;99.90
21759;DHT22;11041;50.854;20.580;2023-05-10T00:54:32;5.90;99.90
21759;DHT22;11041;50.854;20.580;2023-05-10T00:56:59;5.90;99.90
21759;DHT22;11041;50.854;20.580;2023-05-10T00:59:26;5.90;99.90
21759;DHT22;11041;50.854;20.580;2023-05-10T01:01:53;5.90;99.90
21759;DHT22;11041;50.854;20.580;2023-05-10T01:04:20;5.90;99.90
21759;DHT22;11041;50.854;20.580;2023-05-10T01:06:52;5.90;99.90
21759;DHT22;11041;50.854;20.580;2023-05-10T01:09:21;5.90;99.90
21759;DHT22;11041;50.854;20.580;2023-05-10T01:11:49;5.80;99.90
21759;DHT22;11041;50.854;20.580;2023-05-10T01:14:18;5.80;99.90
21759;DHT22;11041;50.854;20.580;2023-05-10T01:16:48;5.80;99.90
21759;DHT22;11041;50.854;20.580;2023-05-10T01:19:34;5.80;99.90
21759;DHT22;11041;50.854;20.580;2023-05-10T01:26:16;5.70;99.90
21759;DHT22;11041;50.854;20.580;2023-05-10T01:32:06;5.80;99.90
21759;DHT22;11041;50.854;20.580;2023-05-10T01:35:02;5.80;99.90
21759;DHT22;11041;50.854;20.580;2023-05-10T01:37:43;5.80;99.90
21759;DHT22;11041;50.854;20.580;2023-05-10T01:40:35;5.80;99.90
21759;DHT22;11041;50.854;20.580;2023-05-10T01:43:11;5.80;99.90
21759;DHT22;11041;50.854;20.580;2023-05-10T01:46:14;5.80;99.90
21759;DHT22;11041;50.854;20.580;2023-05-10T01:48:55;5.80;99.90
21759;DHT22;11041;50.854;20.580;2023-05-10T01:51:27;5.80;99.90
21759;DHT22;11041;50.854;20.580;2023-05-10T01:54:02;5.80;99.90
21759;DHT22;11041;50.854;20.580;2023-05-10T01:56:33;5.80;99.90
21759;DHT22;11041;50.854;20.580;2023-05-10T01:59:09;5.70;99.90
21759;DHT22;11041;50.854;20.580;2023-05-10T02:01:40;5.70;99.90
21759;DHT22;11041;50.854;20.580;2023-05-10T02:04:09;5.70;99.90
21759;DHT22;11041;50.854;20.580;2023-05-10T02:06:42;5.70;99.90
21759;DHT22;11041;50.854;20.580;2023-05-10T02:09:11;5.70;99.90
21759;DHT22;11041;50.854;20.580;2023-05-10T02:11:42;5.80;99.90
21759;DHT22;11041;50.854;20.580;2023-05-10T02:14:11;5.80;99.90
21759;DHT22;11041;50.854;20.580;2023-05-10T02:16:39;5.80;99.90
21759;DHT22;11041;50.854;20.580;2023-05-10T02:19:07;5.90;99.90
21759;DHT22;11041;50.854;20.580;2023-05-10T02:21:37;5.90;99.90
21759;DHT22;11041;50.854;20.580;2023-05-10T02:24:06;5.90;99.90
21759;DHT22;11041;50.854;20.580;2023-05-10T02:26:35;5.90;99.90
21759;DHT22;11041;50.854;20.580;2023-05-10T02:29:05;5.90;99.90
21759;DHT22;11041;50.854;20.580;2023-05-10T02:31:33;5.80;99.90
21759;DHT22;11041;50.854;20.580;2023-05-10T02:34:02;5.80;99.90
21759;DHT22;11041;50.854;20.580;2023-05-10T02:36:29;5.70;99.90
21759;DHT22;11041;50.854;20.580;2023-05-10T02:38:59;5.80;99.90
21759;DHT22;11041;50.854;20.580;2023-05-10T02:41:30;5.80;99.90
21759;DHT22;11041;50.854;20.580;2023-05-10T02:44:00;5.80;99.90
21759;DHT22;11041;50.854;20.580;2023-05-10T02:46:29;5.70;99.90
21759;DHT22;11041;50.854;20.580;2023-05-10T02:49:00;5.70;99.90
21759;DHT22;11041;50.854;20.580;2023-05-10T02:51:31;5.70;99.90
21759;DHT22;11041;50.854;20.580;2023-05-10T02:54:07;5.60;99.90
21759;DHT22;11041;50.854;20.580;2023-05-10T02:56:46;5.60;99.90
21759;DHT22;11041;50.854;20.580;2023-05-10T02:59:16;5.60;99.90
21759;DHT22;11041;50.854;20.580;2023-05-10T03:01:43;5.60;99.90
21759;DHT22;11041;50.854;20.580;2023-05-10T03:04:09;5.50;99.90
21759;DHT22;11041;50.854;20.580;2023-05-10T03:06:36;5.50;99.90
21759;DHT22;11041;50.854;20.580;2023-05-10T03:09:03;5.50;99.90
21759;DHT22;11041;50.854;20.580;2023-05-10T03:18:09;5.70;99.90
21759;DHT22;11041;50.854;20.580;2023-05-10T03:20:47;5.70;99.90
21759;DHT22;11041;50.854;20.580;2023-05-10T03:26:00;5.80;99.90
21759;DHT22;11041;50.854;20.580;2023-05-10T03:28:29;5.80;99.90
21759;DHT22;11041;50.854;20.580;2023-05-10T03:30:59;5.80;99.90
21759;DHT22;11041;50.854;20.580;2023-05-10T03:33:26;5.80;99.90
21759;DHT22;11041;50.854;20.580;2023-05-10T03:35:53;5.80;99.90
21759;DHT22;11041;50.854;20.580;2023-05-10T03:38:19;5.90;99.90
21759;DHT22;11041;50.854;20.580;2023-05-10T03:40:46;5.90;99.90
21759;DHT22;11041;50.854;20.580;2023-05-10T03:43:12;5.90;99.90
21759;DHT22;11041;50.854;20.580;2023-05-10T03:45:39;5.90;99.90
21759;DHT22;11041;50.854;20.580;2023-05-10T03:48:06;7.50;99.90
21759;DHT22;11041;50.854;20.580;2023-05-10T03:50:32;5.90;99.90
21759;DHT22;11041;50.854;20.580;2023-05-10T03:52:59;6.00;99.90
21759;DHT22;11041;50.854;20.580;2023-05-10T03:55:25;6.00;99.90
21759;DHT22;11041;50.854;20.580;2023-05-10T03:57:52;6.10;99.90
21759;DHT22;11041;50.854;20.580;2023-05-10T04:00:20;6.20;99.90
21759;DHT22;11041;50.854;20.580;2023-05-10T04:02:46;6.30;99.90
21759;DHT22;11041;50.854;20.580;2023-05-10T04:05:13;6.40;99.90
21759;DHT22;11041;50.854;20.580;2023-05-10T04:07:39;6.50;99.90
21759;DHT22;11041;50.854;20.580;2023-05-10T04:10:06;6.60;99.90
21759;DHT22;11041;50.854;20.580;2023-05-10T04:12:33;6.70;99.90
21759;DHT22;11041;50.854;20.580;2023-05-10T04:15:00;6.80;99.90
21759;DHT22;11041;50.854;20.580;2023-05-10T04:17:27;6.90;99.90
21759;DHT22;11041;50.854;20.580;2023-05-10T04:19:53;7.10;99.90
21759;DHT22;11041;50.854;20.580;2023-05-10T04:22:20;7.20;99.90
21759;DHT22;11041;50.854;20.580;2023-05-10T04:24:47;7.20;99.90
21759;DHT22;11041;50.854;20.580;2023-05-10T04:27:13;7.20;99.90
21759;DHT22;11041;50.854;20.580;2023-05-10T04:29:40;7.30;99.90
21759;DHT22;11041;50.854;20.580;2023-05-10T04:32:07;7.50;99.90
21759;DHT22;11041;50.854;20.580;2023-05-10T04:34:34;7.60;99.90
21759;DHT22;11041;50.854;20.580;2023-05-10T04:37:00;7.80;99.90
21759;DHT22;11041;50.854;20.580;2023-05-10T04:39:27;7.80;99.90
21759;DHT22;11041;50.854;20.580;2023-05-10T04:41:53;7.90;99.90
21759;DHT22;11041;50.854;20.580;2023-05-10T04:44:20;8.10;99.90
21759;DHT22;11041;50.854;20.580;2023-05-10T04:46:46;8.20;99.90
21759;DHT22;11041;50.854;20.580;2023-05-10T04:49:13;8.30;99.90
21759;DHT22;11041;50.854;20.580;2023-05-10T04:51:40;8.40;99.90
21759;DHT22;11041;50.854;20.580;2023-05-10T04:54:07;8.50;99.90
21759;DHT22;11041;50.854;20.580;2023-05-10T04:56:33;8.60;99.90
21759;DHT22;11041;50.854;20.580;2023-05-10T04:59:00;8.70;99.90
21759;DHT22;11041;50.854;20.580;2023-05-10T05:01:26;8.80;99.90
21759;DHT22;11041;50.854;20.580;2023-05-10T05:03:53;8.90;99.90
21759;DHT22;11041;50.854;20.580;2023-05-10T05:06:19;9.00;99.90
21759;DHT22;11041;50.854;20.580;2023-05-10T05:08:47;9.00;99.90
21759;DHT22;11041;50.854;20.580;2023-05-10T05:11:15;9.10;99.90
21759;DHT22;11041;50.854;20.580;2023-05-10T05:13:43;9.20;99.90
21759;DHT22;11041;50.854;20.580;2023-05-10T05:16:09;9.30;99.90
21759;DHT22;11041;50.854;20.580;2023-05-10T05:18:37;9.40;99.90
21759;DHT22;11041;50.854;20.580;2023-05-10T05:21:16;9.50;99.90
21759;DHT22;11041;50.854;20.580;2023-05-10T05:23:44;9.60;99.90
21759;DHT22;11041;50.854;20.580;2023-05-10T05:26:12;9.60;99.90
21759;DHT22;11041;50.854;20.580;2023-05-10T05:28:38;9.70;99.90
21759;DHT22;11041;50.854;20.580;2023-05-10T05:31:06;9.80;99.90
21759;DHT22;11041;50.854;20.580;2023-05-10T05:33:34;9.90;99.90
21759;DHT22;11041;50.854;20.580;2023-05-10T05:36:02;10.00;99.90
21759;DHT22;11041;50.854;20.580;2023-05-10T05:38:30;10.00;99.90
21759;DHT22;11041;50.854;20.580;2023-05-10T05:40:57;10.10;99.90
21759;DHT22;11041;50.854;20.580;2023-05-10T05:43:24;10.20;99.90
21759;DHT22;11041;50.854;20.580;2023-05-10T05:45:55;10.30;99.90
21759;DHT22;11041;50.854;20.580;2023-05-10T05:48:24;10.40;99.90
21759;DHT22;11041;50.854;20.580;2023-05-10T05:50:54;10.40;99.90
21759;DHT22;11041;50.854;20.580;2023-05-10T05:53:22;10.50;99.90
21759;DHT22;11041;50.854;20.580;2023-05-10T05:55:57;10.60;99.90
21759;DHT22;11041;50.854;20.580;2023-05-10T05:58:25;10.70;99.90
21759;DHT22;11041;50.854;20.580;2023-05-10T06:00:52;10.70;99.90
21759;DHT22;11041;50.854;20.580;2023-05-10T06:03:18;10.90;99.90
21759;DHT22;11041;50.854;20.580;2023-05-10T06:05:46;10.90;99.90
21759;DHT22;11041;50.854;20.580;2023-05-10T06:08:12;11.00;99.90
21759;DHT22;11041;50.854;20.580;2023-05-10T06:10:39;11.10;99.90
21759;DHT22;11041;50.854;20.580;2023-05-10T06:13:06;11.10;99.90
21759;DHT22;11041;50.854;20.580;2023-05-10T06:15:32;11.30;99.90
21759;DHT22;11041;50.854;20.580;2023-05-10T06:17:59;11.30;99.90
21759;DHT22;11041;50.854;20.580;2023-05-10T06:20:26;11.50;99.90
21759;DHT22;11041;50.854;20.580;2023-05-10T06:22:52;11.60;99.90
21759;DHT22;11041;50.854;20.580;2023-05-10T06:25:18;11.60;99.90
21759;DHT22;11041;50.854;20.580;2023-05-10T06:27:45;11.70;99.90
21759;DHT22;11041;50.854;20.580;2023-05-10T06:30:12;11.80;99.90
21759;DHT22;11041;50.854;20.580;2023-05-10T06:32:40;11.80;99.90
21759;DHT22;11041;50.854;20.580;2023-05-10T06:35:10;11.90;99.90
21759;DHT22;11041;50.854;20.580;2023-05-10T06:37:37;12.00;99.90
21759;DHT22;11041;50.854;20.580;2023-05-10T06:40:04;11.60;99.90
21759;DHT22;11041;50.854;20.580;2023-05-10T06:42:32;12.10;99.90
21759;DHT22;11041;50.854;20.580;2023-05-10T06:44:58;12.20;99.90
21759;DHT22;11041;50.854;20.580;2023-05-10T06:47:24;12.30;99.90
21759;DHT22;11041;50.854;20.580;2023-05-10T06:49:52;12.40;99.90
21759;DHT22;11041;50.854;20.580;2023-05-10T06:52:19;12.50;99.90
21759;DHT22;11041;50.854;20.580;2023-05-10T06:54:46;12.50;99.90
21759;DHT22;11041;50.854;20.580;2023-05-10T06:57:12;12.60;99.90
21759;DHT22;11041;50.854;20.580;2023-05-10T06:59:38;12.60;99.90
21759;DHT22;11041;50.854;20.580;2023-05-10T07:02:05;12.60;99.90
21759;DHT22;11041;50.854;20.580;2023-05-10T07:04:32;12.70;99.90
21759;DHT22;11041;50.854;20.580;2023-05-10T07:06:58;12.80;99.90
21759;DHT22;11041;50.854;20.580;2023-05-10T07:09:25;12.90;99.90
21759;DHT22;11041;50.854;20.580;2023-05-10T07:11:51;12.90;99.90
21759;DHT22;11041;50.854;20.580;2023-05-10T07:14:18;13.10;99.90
21759;DHT22;11041;50.854;20.580;2023-05-10T07:16:44;13.10;99.90
21759;DHT22;11041;50.854;20.580;2023-05-10T07:19:10;13.10;99.90
21759;DHT22;11041;50.854;20.580;2023-05-10T07:21:37;13.20;99.90
21759;DHT22;11041;50.854;20.580;2023-05-10T07:24:03;13.30;99.90
21759;DHT22;11041;50.854;20.580;2023-05-10T07:26:30;13.30;99.90
21759;DHT22;11041;50.854;20.580;2023-05-10T07:28:58;13.40;99.90
21759;DHT22;11041;50.854;20.580;2023-05-10T07:31:26;13.40;99.90
21759;DHT22;11041;50.854;20.580;2023-05-10T07:33:53;13.50;99.90
21759;DHT22;11041;50.854;20.580;2023-05-10T07:36:19;13.50;99.90
21759;DHT22;11041;50.854;20.580;2023-05-10T07:38:46;13.70;99.90
21759;DHT22;11041;50.854;20.580;2023-05-10T07:41:12;13.70;99.90
21759;DHT22;11041;50.854;20.580;2023-05-10T07:43:39;13.80;99.90
21759;DHT22;11041;50.854;20.580;2023-05-10T07:46:06;13.80;99.90
21759;DHT22;11041;50.854;20.580;2023-05-10T07:48:32;13.90;99.90
21759;DHT22;11041;50.854;20.580;2023-05-10T07:50:59;13.90;99.90
21759;DHT22;11041;50.854;20.580;2023-05-10T07:53:26;14.00;99.90
21759;DHT22;11041;50.854;20.580;2023-05-10T07:55:59;14.00;99.90
21759;DHT22;11041;50.854;20.580;2023-05-10T07:58:47;14.10;99.90
21759;DHT22;11041;50.854;20.580;2023-05-10T08:01:13;14.20;99.90
21759;DHT22;11041;50.854;20.580;2023-05-10T08:03:40;14.20;99.90
21759;DHT22;11041;50.854;20.580;2023-05-10T08:06:06;14.20;99.90
21759;DHT22;11041;50.854;20.580;2023-05-10T08:08:33;14.30;99.90
21759;DHT22;11041;50.854;20.580;2023-05-10T08:10:59;14.40;99.90
21759;DHT22;11041;50.854;20.580;2023-05-10T08:13:26;14.40;99.90
21759;DHT22;11041;50.854;20.580;2023-05-10T08:16:18;14.50;99.90
21759;DHT22;11041;50.854;20.580;2023-05-10T08:19:10;14.50;99.80
21759;DHT22;11041;50.854;20.580;2023-05-10T08:22:00;14.50;98.40
21759;DHT22;11041;50.854;20.580;2023-05-10T08:24:51;14.70;99.90
21759;DHT22;11041;50.854;20.580;2023-05-10T08:27:42;14.70;98.40
21759;DHT22;11041;50.854;20.580;2023-05-10T08:30:34;14.80;98.10
21759;DHT22;11041;50.854;20.580;2023-05-10T08:33:25;14.80;97.30
21759;DHT22;11041;50.854;20.580;2023-05-10T08:40:26;15.00;95.90
21759;DHT22;11041;50.854;20.580;2023-05-10T08:43:07;15.10;95.50
21759;DHT22;11041;50.854;20.580;2023-05-10T08:45:42;15.10;96.30
21759;DHT22;11041;50.854;20.580;2023-05-10T08:48:14;15.20;95.90
21759;DHT22;11041;50.854;20.580;2023-05-10T08:50:42;15.30;96.30
21759;DHT22;11041;50.854;20.580;2023-05-10T08:53:13;15.40;96.70
21759;DHT22;11041;50.854;20.580;2023-05-10T08:55:41;15.50;96.70
21759;DHT22;11041;50.854;20.580;2023-05-10T08:58:09;15.50;95.10
21759;DHT22;11041;50.854;20.580;2023-05-10T09:00:36;15.60;97.20
21759;DHT22;11041;50.854;20.580;2023-05-10T09:03:04;15.70;95.90
21759;DHT22;11041;50.854;20.580;2023-05-10T09:05:32;15.80;95.60
21759;DHT22;11041;50.854;20.580;2023-05-10T09:07:58;15.70;94.10
21759;DHT22;11041;50.854;20.580;2023-05-10T09:10:28;15.80;94.30
21759;DHT22;11041;50.854;20.580;2023-05-10T09:12:57;15.80;94.90
21759;DHT22;11041;50.854;20.580;2023-05-10T09:15:25;16.00;95.60
21759;DHT22;11041;50.854;20.580;2023-05-10T09:17:51;16.00;94.80
21759;DHT22;11041;50.854;20.580;2023-05-10T09:20:18;16.00;92.30
21759;DHT22;11041;50.854;20.580;2023-05-10T09:22:46;16.20;94.30
21759;DHT22;11041;50.854;20.580;2023-05-10T09:25:14;16.10;93.00
21759;DHT22;11041;50.854;20.580;2023-05-10T09:27:45;16.20;94.10
21759;DHT22;11041;50.854;20.580;2023-05-10T09:30:27;16.20;92.70
21759;DHT22;11041;50.854;20.580;2023-05-10T09:32:57;16.10;92.70
21759;DHT22;11041;50.854;20.580;2023-05-10T09:35:27;16.20;93.50
21759;DHT22;11041;50.854;20.580;2023-05-10T09:37:57;16.10;93.40
21759;DHT22;11041;50.854;20.580;2023-05-10T09:40:27;16.20;92.90
21759;DHT22;11041;50.854;20.580;2023-05-10T09:42:57;16.20;92.90
21759;DHT22;11041;50.854;20.580;2023-05-10T09:45:28;16.20;92.60
21759;DHT22;11041;50.854;20.580;2023-05-10T09:47:57;16.20;91.60
21759;DHT22;11041;50.854;20.580;2023-05-10T09:50:26;16.20;91.90
21759;DHT22;11041;50.854;20.580;2023-05-10T09:52:56;16.30;93.20
21759;DHT22;11041;50.854;20.580;2023-05-10T09:55:45;16.30;90.50
21759;DHT22;11041;50.854;20.580;2023-05-10T09:58:15;16.30;91.10
21759;DHT22;11041;50.854;20.580;2023-05-10T10:00:43;16.30;90.20
21759;DHT22;11041;50.854;20.580;2023-05-10T10:03:15;16.50;91.80
21759;DHT22;11041;50.854;20.580;2023-05-10T10:05:44;16.30;89.60
21759;DHT22;11041;50.854;20.580;2023-05-10T10:08:12;16.40;90.50
21759;DHT22;11041;50.854;20.580;2023-05-10T10:10:40;16.60;89.20
21759;DHT22;11041;50.854;20.580;2023-05-10T10:13:08;16.70;87.30
21759;DHT22;11041;50.854;20.580;2023-05-10T10:15:35;16.70;87.20
21759;DHT22;11041;50.854;20.580;2023-05-10T10:18:02;16.80;90.30
21759;DHT22;11041;50.854;20.580;2023-05-10T10:20:32;16.80;90.10
21759;DHT22;11041;50.854;20.580;2023-05-10T10:22:58;16.80;89.20
21759;DHT22;11041;50.854;20.580;2023-05-10T10:25:25;16.90;89.80
21759;DHT22;11041;50.854;20.580;2023-05-10T10:30:45;17.00;90.10
21759;DHT22;11041;50.854;20.580;2023-05-10T10:33:55;17.10;87.70
21759;DHT22;11041;50.854;20.580;2023-05-10T10:36:26;16.90;89.60
21759;DHT22;11041;50.854;20.580;2023-05-10T10:38:58;16.90;87.40
21759;DHT22;11041;50.854;20.580;2023-05-10T10:41:35;16.90;85.10
21759;DHT22;11041;50.854;20.580;2023-05-10T10:47:20;17.20;86.00
21759;DHT22;11041;50.854;20.580;2023-05-10T10:52:48;17.10;85.10
21759;DHT22;11041;50.854;20.580;2023-05-10T10:55:19;17.20;83.10
21759;DHT22;11041;50.854;20.580;2023-05-10T10:57:55;17.30;84.80
21759;DHT22;11041;50.854;20.580;2023-05-10T11:00:37;17.40;86.90
21759;DHT22;11041;50.854;20.580;2023-05-10T11:03:12;17.50;84.50
21759;DHT22;11041;50.854;20.580;2023-05-10T11:05:47;17.70;81.80
21759;DHT22;11041;50.854;20.580;2023-05-10T11:11:02;17.90;78.00
21759;DHT22;11041;50.854;20.580;2023-05-10T11:13:37;17.80;78.00
21759;DHT22;11041;50.854;20.580;2023-05-10T11:16:40;17.80;81.00
21759;DHT22;11041;50.854;20.580;2023-05-10T11:19:11;17.80;80.70
21759;DHT22;11041;50.854;20.580;2023-05-10T11:22:11;18.00;79.30
21759;DHT22;11041;50.854;20.580;2023-05-10T11:24:40;17.90;79.40
21759;DHT22;11041;50.854;20.580;2023-05-10T11:27:24;17.80;77.60
21759;DHT22;11041;50.854;20.580;2023-05-10T11:29:54;17.90;78.60
21759;DHT22;11041;50.854;20.580;2023-05-10T11:32:20;18.20;78.30
21759;DHT22;11041;50.854;20.580;2023-05-10T11:34:48;18.20;76.60
21759;DHT22;11041;50.854;20.580;2023-05-10T11:37:14;18.30;79.00
21759;DHT22;11041;50.854;20.580;2023-05-10T11:39:45;18.10;77.70
21759;DHT22;11041;50.854;20.580;2023-05-10T11:42:13;18.40;76.20
21759;DHT22;11041;50.854;20.580;2023-05-10T11:44:40;18.50;79.00
21759;DHT22;11041;50.854;20.580;2023-05-10T11:47:07;18.60;78.20
21759;DHT22;11041;50.854;20.580;2023-05-10T11:49:34;18.90;76.00
21759;DHT22;11041;50.854;20.580;2023-05-10T11:52:08;19.00;73.30
21759;DHT22;11041;50.854;20.580;2023-05-10T11:54:37;19.20;73.50
21759;DHT22;11041;50.854;20.580;2023-05-10T11:57:03;19.20;74.20
21759;DHT22;11041;50.854;20.580;2023-05-10T11:59:30;19.40;76.40
21759;DHT22;11041;50.854;20.580;2023-05-10T12:01:57;19.50;74.80
21759;DHT22;11041;50.854;20.580;2023-05-10T12:04:24;19.70;75.20
21759;DHT22;11041;50.854;20.580;2023-05-10T12:06:51;19.50;73.20
21759;DHT22;11041;50.854;20.580;2023-05-10T12:09:18;19.80;73.90
21759;DHT22;11041;50.854;20.580;2023-05-10T12:11:44;20.00;73.40
21759;DHT22;11041;50.854;20.580;2023-05-10T12:14:11;20.10;72.70
21759;DHT22;11041;50.854;20.580;2023-05-10T12:16:39;20.20;72.30
21759;DHT22;11041;50.854;20.580;2023-05-10T12:19:09;20.40;71.80
21759;DHT22;11041;50.854;20.580;2023-05-10T12:21:35;20.20;73.20
21759;DHT22;11041;50.854;20.580;2023-05-10T12:24:03;20.40;71.00
21759;DHT22;11041;50.854;20.580;2023-05-10T12:26:32;20.50;67.90
21759;DHT22;11041;50.854;20.580;2023-05-10T12:29:18;20.70;73.10
21759;DHT22;11041;50.854;20.580;2023-05-10T12:31:56;20.90;66.90
21759;DHT22;11041;50.854;20.580;2023-05-10T12:34:30;20.80;67.50
21759;DHT22;11041;50.854;20.580;2023-05-10T12:37:04;21.10;66.40
21759;DHT22;11041;50.854;20.580;2023-05-10T12:39:43;21.00;67.30
21759;DHT22;11041;50.854;20.580;2023-05-10T12:42:10;20.90;69.20
21759;DHT22;11041;50.854;20.580;2023-05-10T12:44:38;20.50;67.70
21759;DHT22;11041;50.854;20.580;2023-05-10T12:47:05;20.90;67.50
21759;DHT22;11041;50.854;20.580;2023-05-10T12:49:33;21.10;68.90
21759;DHT22;11041;50.854;20.580;2023-05-10T12:51:59;21.30;66.40
21759;DHT22;11041;50.854;20.580;2023-05-10T12:54:26;20.90;66.10
21759;DHT22;11041;50.854;20.580;2023-05-10T12:56:53;21.00;65.60
21759;DHT22;11041;50.854;20.580;2023-05-10T12:59:20;21.40;66.10
21759;DHT22;11041;50.854;20.580;2023-05-10T13:01:49;21.10;66.50
21759;DHT22;11041;50.854;20.580;2023-05-10T13:04:16;21.50;64.90
21759;DHT22;11041;50.854;20.580;2023-05-10T13:06:42;21.60;64.90
21759;DHT22;11041;50.854;20.580;2023-05-10T13:09:09;21.50;63.60
21759;DHT22;11041;50.854;20.580;2023-05-10T13:11:36;21.70;61.70
21759;DHT22;11041;50.854;20.580;2023-05-10T13:14:02;21.90;61.30
21759;DHT22;11041;50.854;20.580;2023-05-10T13:16:29;22.20;63.20
21759;DHT22;11041;50.854;20.580;2023-05-10T13:18:56;22.00;63.30
21759;DHT22;11041;50.854;20.580;2023-05-10T13:21:22;22.20;61.90
21759;DHT22;11041;50.854;20.580;2023-05-10T13:23:50;22.20;62.50
21759;DHT22;11041;50.854;20.580;2023-05-10T13:26:17;22.00;64.80
21759;DHT22;11041;50.854;20.580;2023-05-10T13:28:43;22.20;61.20
21759;DHT22;11041;50.854;20.580;2023-05-10T13:31:11;20.90;61.10
21759;DHT22;11041;50.854;20.580;2023-05-10T13:33:38;21.80;62.70
21759;DHT22;11041;50.854;20.580;2023-05-10T13:36:05;22.50;61.30
21759;DHT22;11041;50.854;20.580;2023-05-10T13:38:33;22.70;59.10
21759;DHT22;11041;50.854;20.580;2023-05-10T13:41:00;22.60;58.60
21759;DHT22;11041;50.854;20.580;2023-05-10T13:43:28;22.90;59.90
21759;DHT22;11041;50.854;20.580;2023-05-10T13:45:55;22.40;61.10
21759;DHT22;11041;50.854;20.580;2023-05-10T13:48:23;22.60;60.30
21759;DHT22;11041;50.854;20.580;2023-05-10T13:50:52;22.90;59.50
21759;DHT22;11041;50.854;20.580;2023-05-10T13:53:20;23.10;58.10
21759;DHT22;11041;50.854;20.580;2023-05-10T13:55:47;23.50;57.30
21759;DHT22;11041;50.854;20.580;2023-05-10T13:58:14;24.00;57.40
21759;DHT22;11041;50.854;20.580;2023-05-10T14:00:40;24.10;55.90
21759;DHT22;11041;50.854;20.580;2023-05-10T14:03:07;24.10;56.90
21759;DHT22;11041;50.854;20.580;2023-05-10T14:05:36;24.00;54.90
21759;DHT22;11041;50.854;20.580;2023-05-10T14:08:05;23.70;57.30
21759;DHT22;11041;50.854;20.580;2023-05-10T14:10:31;24.40;57.70
21759;DHT22;11041;50.854;20.580;2023-05-10T14:12:58;24.60;55.50
21759;DHT22;11041;50.854;20.580;2023-05-10T14:15:25;24.80;56.20
21759;DHT22;11041;50.854;20.580;2023-05-10T14:17:52;24.10;56.70
21759;DHT22;11041;50.854;20.580;2023-05-10T14:20:18;24.40;56.70
21759;DHT22;11041;50.854;20.580;2023-05-10T14:22:45;24.90;54.00
21759;DHT22;11041;50.854;20.580;2023-05-10T14:25:11;24.90;55.40
21759;DHT22;11041;50.854;20.580;2023-05-10T14:27:39;25.10;52.90
21759;DHT22;11041;50.854;20.580;2023-05-10T14:30:06;25.00;53.50
21759;DHT22;11041;50.854;20.580;2023-05-10T14:32:33;25.20;52.80
21759;DHT22;11041;50.854;20.580;2023-05-10T14:35:00;25.30;53.10
21759;DHT22;11041;50.854;20.580;2023-05-10T14:37:26;25.80;52.90
21759;DHT22;11041;50.854;20.580;2023-05-10T14:39:53;25.70;51.70
21759;DHT22;11041;50.854;20.580;2023-05-10T14:42:20;25.70;52.20
21759;DHT22;11041;50.854;20.580;2023-05-10T14:44:47;25.10;53.50
21759;DHT22;11041;50.854;20.580;2023-05-10T14:47:14;25.30;53.10
21759;DHT22;11041;50.854;20.580;2023-05-10T14:49:40;24.20;53.40
21759;DHT22;11041;50.854;20.580;2023-05-10T14:52:07;24.40;53.10
21759;DHT22;11041;50.854;20.580;2023-05-10T14:54:34;25.00;51.80
21759;DHT22;11041;50.854;20.580;2023-05-10T14:57:00;25.10;51.30
21759;DHT22;11041;50.854;20.580;2023-05-10T14:59:27;24.80;52.00
21759;DHT22;11041;50.854;20.580;2023-05-10T15:01:54;25.20;52.80
21759;DHT22;11041;50.854;20.580;2023-05-10T15:04:23;25.30;52.90
21759;DHT22;11041;50.854;20.580;2023-05-10T15:06:50;25.40;53.00
21759;DHT22;11041;50.854;20.580;2023-05-10T15:09:18;24.70;51.20
21759;DHT22;11041;50.854;20.580;2023-05-10T15:11:45;24.10;51.80
21759;DHT22;11041;50.854;20.580;2023-05-10T15:14:13;24.40;52.50
21759;DHT22;11041;50.854;20.580;2023-05-10T15:16:40;24.30;51.70
21759;DHT22;11041;50.854;20.580;2023-05-10T15:19:08;24.30;51.80
21759;DHT22;11041;50.854;20.580;2023-05-10T15:21:37;24.40;52.40
21759;DHT22;11041;50.854;20.580;2023-05-10T15:24:05;24.30;53.70
21759;DHT22;11041;50.854;20.580;2023-05-10T15:26:32;24.70;53.40
21759;DHT22;11041;50.854;20.580;2023-05-10T15:29:00;23.80;52.50
21759;DHT22;11041;50.854;20.580;2023-05-10T15:31:27;24.30;53.90
21759;DHT22;11041;50.854;20.580;2023-05-10T15:33:57;23.90;53.60
21759;DHT22;11041;50.854;20.580;2023-05-10T15:36:25;23.80;54.10
21759;DHT22;11041;50.854;20.580;2023-05-10T15:38:53;23.70;53.50
21759;DHT22;11041;50.854;20.580;2023-05-10T15:41:25;23.80;53.30
21759;DHT22;11041;50.854;20.580;2023-05-10T15:43:53;23.80;53.20
21759;DHT22;11041;50.854;20.580;2023-05-10T15:46:21;23.70;53.30
21759;DHT22;11041;50.854;20.580;2023-05-10T15:48:47;23.30;53.10
21759;DHT22;11041;50.854;20.580;2023-05-10T15:51:14;23.00;54.30
21759;DHT22;11041;50.854;20.580;2023-05-10T15:53:41;22.80;53.40
21759;DHT22;11041;50.854;20.580;2023-05-10T15:56:08;22.90;53.10
21759;DHT22;11041;50.854;20.580;2023-05-10T15:58:35;22.40;54.80
21759;DHT22;11041;50.854;20.580;2023-05-10T16:01:04;22.40;54.60
21759;DHT22;11041;50.854;20.580;2023-05-10T16:03:32;22.40;56.10
21759;DHT22;11041;50.854;20.580;2023-05-10T16:06:00;22.00;55.70